sensor_id;sensor_type;location;lat;lon;timestamp;pressure;altitude;pressure_sealevel;temperature;humidity
63493;BME280;49638;47.526;10.028;2023-05-08T00:01:15;91957.84;;;11.80;95.83
63493;BME280;49638;47.526;10.028;2023-05-08T00:04:16;91961.84;;;11.83;95.83
63493;BME280;49638;47.526;10.028;2023-05-08T00:07:19;91967.94;;;11.83;96.00
63493;BME280;49638;47.526;10.028;2023-05-08T00:10:19;91967.94;;;11.83;95.81
63493;BME280;49638;47.526;10.028;2023-05-08T00:13:19;91962.84;;;11.77;96.38
63493;BME280;49638;47.526;10.028;2023-05-08T00:16:20;91963.63;;;11.77;96.05
63493;BME280;49638;47.526;10.028;2023-05-08T00:19:20;91962.34;;;11.80;96.08
63493;BME280;49638;47.526;10.028;2023-05-08T00:22:21;91964.19;;;11.79;96.08
63493;BME280;49638;47.526;10.028;2023-05-08T00:25:21;91958.34;;;11.77;96.52
63493;BME280;49638;47.526;10.028;2023-05-08T00:28:21;91966.22;;;11.72;96.71
63493;BME280;49638;47.526;10.028;2023-05-08T00:31:21;91953.94;;;11.66;96.75
63493;BME280;49638;47.526;10.028;2023-05-08T00:34:23;91951.00;;;11.63;96.93
63493;BME280;49638;47.526;10.028;2023-05-08T00:37:23;91960.84;;;11.67;97.10
63493;BME280;49638;47.526;10.028;2023-05-08T00:40:23;91968.03;;;11.72;97.11
63493;BME280;49638;47.526;10.028;2023-05-08T00:43:24;91964.13;;;11.74;96.87
63493;BME280;49638;47.526;10.028;2023-05-08T00:46:27;91969.66;;;11.73;97.34
63493;BME280;49638;47.526;10.028;2023-05-08T00:49:27;91956.66;;;11.71;97.36
63493;BME280;49638;47.526;10.028;2023-05-08T00:52:29;91962.50;;;11.73;97.72
63493;BME280;49638;47.526;10.028;2023-05-08T00:55:31;91956.81;;;11.65;97.68
63493;BME280;49638;47.526;10.028;2023-05-08T00:58:31;91969.09;;;11.71;97.66
63493;BME280;49638;47.526;10.028;2023-05-08T01:01:33;91966.69;;;11.69;97.68
63493;BME280;49638;47.526;10.028;2023-05-08T01:04:35;91954.34;;;11.58;98.10
63493;BME280;49638;47.526;10.028;2023-05-08T01:07:36;91966.13;;;11.67;98.13
63493;BME280;49638;47.526;10.028;2023-05-08T01:14:18;91959.94;;;11.61;98.36
63493;BME280;49638;47.526;10.028;2023-05-08T01:24:14;91973.59;;;11.70;98.08
63493;BME280;49638;47.526;10.028;2023-05-08T01:30:59;91967.50;;;11.70;99.18
63493;BME280;49638;47.526;10.028;2023-05-08T01:34:04;91975.66;;;11.68;97.57
63493;BME280;49638;47.526;10.028;2023-05-08T01:37:13;91967.41;;;11.65;98.42
63493;BME280;49638;47.526;10.028;2023-05-08T01:40:32;91970.06;;;11.65;99.03
63493;BME280;49638;47.526;10.028;2023-05-08T01:43:51;91971.59;;;11.60;97.95
63493;BME280;49638;47.526;10.028;2023-05-08T01:46:52;91961.16;;;11.54;98.29
63493;BME280;49638;47.526;10.028;2023-05-08T01:49:59;91980.81;;;11.58;98.48
63493;BME280;49638;47.526;10.028;2023-05-08T01:53:08;91971.84;;;11.59;98.12
63493;BME280;49638;47.526;10.028;2023-05-08T01:56:16;91982.44;;;11.59;98.48
63493;BME280;49638;47.526;10.028;2023-05-08T01:59:20;91956.84;;;11.48;97.90
63493;BME280;49638;47.526;10.028;2023-05-08T02:02:21;91977.16;;;11.59;98.09
63493;BME280;49638;47.526;10.028;2023-05-08T02:05:23;91981.06;;;11.56;98.39
63493;BME280;49638;47.526;10.028;2023-05-08T02:08:25;91981.06;;;11.56;98.29
63493;BME280;49638;47.526;10.028;2023-05-08T02:11:27;91969.28;;;11.47;98.22
63493;BME280;49638;47.526;10.028;2023-05-08T02:14:28;91975.69;;;11.51;98.15
63493;BME280;49638;47.526;10.028;2023-05-08T02:17:30;91966.00;;;11.40;98.40
63493;BME280;49638;47.526;10.028;2023-05-08T02:20:32;91970.59;;;11.45;98.47
63493;BME280;49638;47.526;10.028;2023-05-08T02:23:33;91980.66;;;11.48;98.98
63493;BME280;49638;47.526;10.028;2023-05-08T02:26:35;91968.66;;;11.40;99.17
63493;BME280;49638;47.526;10.028;2023-05-08T02:29:36;91961.81;;;11.44;98.91
63493;BME280;49638;47.526;10.028;2023-05-08T02:32:37;91973.78;;;11.47;99.18
63493;BME280;49638;47.526;10.028;2023-05-08T02:35:42;91974.56;;;11.47;99.25
63493;BME280;49638;47.526;10.028;2023-05-08T02:38:44;91963.59;;;11.39;99.63
63493;BME280;49638;47.526;10.028;2023-05-08T02:41:47;91972.56;;;11.37;100.00
63493;BME280;49638;47.526;10.028;2023-05-08T02:44:47;91972.56;;;11.37;99.77
63493;BME280;49638;47.526;10.028;2023-05-08T02:48:11;91970.81;;;11.43;100.00
63493;BME280;49638;47.526;10.028;2023-05-08T02:51:17;91972.41;;;11.44;99.48
63493;BME280;49638;47.526;10.028;2023-05-08T02:54:55;91970.34;;;11.46;100.00
63493;BME280;49638;47.526;10.028;2023-05-08T03:01:48;91980.19;;;11.51;99.38
63493;BME280;49638;47.526;10.028;2023-05-08T03:04:52;91982.59;;;11.52;98.84
63493;BME280;49638;47.526;10.028;2023-05-08T03:07:56;91966.09;;;11.45;98.48
63493;BME280;49638;47.526;10.028;2023-05-08T03:11:04;91970.59;;;11.45;99.18
63493;BME280;49638;47.526;10.028;2023-05-08T03:14:11;91963.66;;;11.44;99.12
63493;BME280;49638;47.526;10.028;2023-05-08T03:17:15;91972.72;;;11.48;98.84
63493;BME280;49638;47.526;10.028;2023-05-08T03:20:17;91955.19;;;11.42;98.61
63493;BME280;49638;47.526;10.028;2023-05-08T03:23:19;91965.59;;;11.48;98.28
63493;BME280;49638;47.526;10.028;2023-05-08T03:26:20;91968.00;;;11.50;98.25
63493;BME280;49638;47.526;10.028;2023-05-08T03:29:22;91965.59;;;11.48;98.34
63493;BME280;49638;47.526;10.028;2023-05-08T03:32:26;91967.69;;;11.46;98.27
63493;BME280;49638;47.526;10.028;2023-05-08T03:35:27;91965.53;;;11.43;98.92
63493;BME280;49638;47.526;10.028;2023-05-08T03:38:27;91966.09;;;11.45;98.72
63493;BME280;49638;47.526;10.028;2023-05-08T03:41:28;91976.84;;;11.39;98.98
63493;BME280;49638;47.526;10.028;2023-05-08T03:44:28;91964.00;;;11.30;98.97
63493;BME280;49638;47.526;10.028;2023-05-08T03:47:29;91970.19;;;11.36;98.86
63493;BME280;49638;47.526;10.028;2023-05-08T03:50:31;91967.28;;;11.37;99.07
63493;BME280;49638;47.526;10.028;2023-05-08T03:53:33;91979.97;;;11.35;99.39
63493;BME280;49638;47.526;10.028;2023-05-08T03:56:33;91977.31;;;11.35;99.03
63493;BME280;49638;47.526;10.028;2023-05-08T03:59:53;91981.00;;;11.34;100.00
63493;BME280;49638;47.526;10.028;2023-05-08T04:03:20;91981.25;;;11.33;99.61
63493;BME280;49638;47.526;10.028;2023-05-08T04:06:28;91985.97;;;11.31;99.91
63493;BME280;49638;47.526;10.028;2023-05-08T04:09:47;91988.28;;;11.27;100.00
63493;BME280;49638;47.526;10.028;2023-05-08T04:12:59;91989.81;;;11.23;100.00
63493;BME280;49638;47.526;10.028;2023-05-08T04:16:12;91994.56;;;11.21;100.00
63493;BME280;49638;47.526;10.028;2023-05-08T04:19:21;92004.66;;;11.24;100.00
63493;BME280;49638;47.526;10.028;2023-05-08T04:22:24;91995.91;;;11.24;99.84
63493;BME280;49638;47.526;10.028;2023-05-08T04:25:27;91994.09;;;11.24;99.94
63493;BME280;49638;47.526;10.028;2023-05-08T04:28:28;92008.31;;;11.23;100.00
63493;BME280;49638;47.526;10.028;2023-05-08T04:31:29;91999.84;;;11.21;100.00
63493;BME280;49638;47.526;10.028;2023-05-08T04:34:30;92005.22;;;11.26;99.64
63493;BME280;49638;47.526;10.028;2023-05-08T04:37:30;92004.41;;;11.26;99.88
63493;BME280;49638;47.526;10.028;2023-05-08T04:40:31;92003.28;;;11.22;99.99
63493;BME280;49638;47.526;10.028;2023-05-08T04:43:31;92004.56;;;11.19;99.73
63493;BME280;49638;47.526;10.028;2023-05-08T04:46:31;92014.19;;;11.25;99.93
63493;BME280;49638;47.526;10.028;2023-05-08T04:49:32;92001.44;;;11.22;100.00
63493;BME280;49638;47.526;10.028;2023-05-08T04:52:32;92007.22;;;11.19;100.00
63493;BME280;49638;47.526;10.028;2023-05-08T04:55:32;92009.38;;;11.22;100.00
63493;BME280;49638;47.526;10.028;2023-05-08T04:58:32;92011.22;;;11.22;100.00
63493;BME280;49638;47.526;10.028;2023-05-08T05:01:33;92010.97;;;11.23;100.00
63493;BME280;49638;47.526;10.028;2023-05-08T05:04:34;92021.56;;;11.23;100.00
63493;BME280;49638;47.526;10.028;2023-05-08T05:07:35;92009.38;;;11.22;99.94
63493;BME280;49638;47.526;10.028;2023-05-08T05:10:37;92019.16;;;11.22;99.90
63493;BME280;49638;47.526;10.028;2023-05-08T05:13:38;92005.38;;;11.20;100.00
63493;BME280;49638;47.526;10.028;2023-05-08T05:16:38;92010.97;;;11.23;100.00
63493;BME280;49638;47.526;10.028;2023-05-08T05:19:38;92015.00;;;11.26;99.85
63493;BME280;49638;47.526;10.028;2023-05-08T05:22:39;92017.91;;;11.24;99.71
63493;BME280;49638;47.526;10.028;2023-05-08T05:25:39;92024.31;;;11.28;99.36
63493;BME280;49638;47.526;10.028;2023-05-08T05:28:39;92030.41;;;11.29;99.76
63493;BME280;49638;47.526;10.028;2023-05-08T05:31:39;92013.63;;;11.23;99.67
63493;BME280;49638;47.526;10.028;2023-05-08T05:34:40;92025.09;;;11.29;99.76
63493;BME280;49638;47.526;10.028;2023-05-08T05:37:40;92022.59;;;11.22;100.00
63493;BME280;49638;47.526;10.028;2023-05-08T05:40:41;92039.06;;;11.24;100.00
63493;BME280;49638;47.526;10.028;2023-05-08T05:43:41;92034.56;;;11.25;100.00
63493;BME280;49638;47.526;10.028;2023-05-08T05:46:41;92037.22;;;11.25;100.00
63493;BME280;49638;47.526;10.028;2023-05-08T05:49:41;92040.19;;;11.28;100.00
63493;BME280;49638;47.526;10.028;2023-05-08T05:52:45;92026.78;;;11.18;100.00
63493;BME280;49638;47.526;10.028;2023-05-08T05:55:46;92035.09;;;11.27;100.00
63493;BME280;49638;47.526;10.028;2023-05-08T05:58:46;92039.69;;;11.31;100.00
63493;BME280;49638;47.526;10.028;2023-05-08T06:01:46;92029.91;;;11.32;100.00
63493;BME280;49638;47.526;10.028;2023-05-08T06:04:46;92023.19;;;11.24;100.00
63493;BME280;49638;47.526;10.028;2023-05-08T06:07:49;92031.19;;;11.29;100.00
63493;BME280;49638;47.526;10.028;2023-05-08T06:10:49;92030.56;;;11.39;100.00
63493;BME280;49638;47.526;10.028;2023-05-08T06:13:49;92031.94;;;11.42;100.00
63493;BME280;49638;47.526;10.028;2023-05-08T06:16:49;92028.72;;;11.40;100.00
63493;BME280;49638;47.526;10.028;2023-05-08T06:19:52;92029.19;;;11.36;100.00
63493;BME280;49638;47.526;10.028;2023-05-08T06:22:54;92024.94;;;11.35;100.00
63493;BME280;49638;47.526;10.028;2023-05-08T06:25:54;92022.84;;;11.37;100.00
63493;BME280;49638;47.526;10.028;2023-05-08T06:28:55;92037.28;;;11.47;100.00
63493;BME280;49638;47.526;10.028;2023-05-08T06:31:55;92033.59;;;11.48;100.00
63493;BME280;49638;47.526;10.028;2023-05-08T06:34:56;92033.13;;;11.51;100.00
63493;BME280;49638;47.526;10.028;2023-05-08T06:37:56;92038.25;;;11.57;100.00
63493;BME280;49638;47.526;10.028;2023-05-08T06:40:56;92042.28;;;11.60;100.00
63493;BME280;49638;47.526;10.028;2023-05-08T06:43:57;92032.25;;;11.62;100.00
63493;BME280;49638;47.526;10.028;2023-05-08T06:46:58;92037.22;;;11.75;100.00
63493;BME280;49638;47.526;10.028;2023-05-08T06:49:59;92037.53;;;11.79;100.00
63493;BME280;49638;47.526;10.028;2023-05-08T06:52:59;92031.84;;;11.87;100.00
63493;BME280;49638;47.526;10.028;2023-05-08T06:55:59;92039.38;;;11.95;99.61
63493;BME280;49638;47.526;10.028;2023-05-08T06:59:00;92039.63;;;11.94;99.19
63493;BME280;49638;47.526;10.028;2023-05-08T07:02:00;92043.66;;;11.96;99.13
63493;BME280;49638;47.526;10.028;2023-05-08T07:05:00;92038.34;;;11.96;99.10
63493;BME280;49638;47.526;10.028;2023-05-08T07:08:02;92031.94;;;11.92;99.00
63493;BME280;49638;47.526;10.028;2023-05-08T07:11:02;92044.69;;;11.95;99.28
63493;BME280;49638;47.526;10.028;2023-05-08T07:14:03;92046.78;;;11.93;99.56
63493;BME280;49638;47.526;10.028;2023-05-08T07:17:03;92045.56;;;12.01;99.98
63493;BME280;49638;47.526;10.028;2023-05-08T07:20:07;92053.59;;;12.06;100.00
63493;BME280;49638;47.526;10.028;2023-05-08T07:23:08;92049.41;;;12.10;100.00
63493;BME280;49638;47.526;10.028;2023-05-08T07:26:08;92038.25;;;12.08;99.95
63493;BME280;49638;47.526;10.028;2023-05-08T07:29:09;92047.38;;;12.17;99.80
63493;BME280;49638;47.526;10.028;2023-05-08T07:32:09;92055.06;;;12.19;100.00
63493;BME280;49638;47.526;10.028;2023-05-08T07:35:09;92035.09;;;12.11;100.00
63493;BME280;49638;47.526;10.028;2023-05-08T07:38:11;92045.03;;;12.21;100.00
63493;BME280;49638;47.526;10.028;2023-05-08T07:41:11;92044.06;;;12.27;100.00
63493;BME280;49638;47.526;10.028;2023-05-08T07:44:12;92043.91;;;12.34;100.00
63493;BME280;49638;47.526;10.028;2023-05-08T07:47:12;92055.97;;;12.46;99.86
63493;BME280;49638;47.526;10.028;2023-05-08T07:50:12;92055.25;;;12.51;99.64
63493;BME280;49638;47.526;10.028;2023-05-08T07:53:12;92048.09;;;12.51;99.76
63493;BME280;49638;47.526;10.028;2023-05-08T07:56:13;92048.22;;;12.62;99.48
63493;BME280;49638;47.526;10.028;2023-05-08T07:59:13;92042.91;;;12.62;99.18
63493;BME280;49638;47.526;10.028;2023-05-08T08:02:13;92049.81;;;12.63;98.84
63493;BME280;49638;47.526;10.028;2023-05-08T08:05:13;92044.28;;;12.64;98.85
63493;BME280;49638;47.526;10.028;2023-05-08T08:08:14;92049.63;;;12.69;98.83
63493;BME280;49638;47.526;10.028;2023-05-08T08:11:14;92054.31;;;12.62;98.94
63493;BME280;49638;47.526;10.028;2023-05-08T08:14:14;92053.81;;;12.65;99.21
63493;BME280;49638;47.526;10.028;2023-05-08T08:17:15;92050.59;;;12.63;99.23
63493;BME280;49638;47.526;10.028;2023-05-08T08:20:15;92051.94;;;12.61;99.54
63493;BME280;49638;47.526;10.028;2023-05-08T08:23:16;92055.38;;;12.61;98.60
63493;BME280;49638;47.526;10.028;2023-05-08T08:26:16;92052.41;;;12.58;98.62
63493;BME280;49638;47.526;10.028;2023-05-08T08:29:16;92056.91;;;12.57;98.60
63493;BME280;49638;47.526;10.028;2023-05-08T08:32:17;92056.09;;;12.57;98.80
63493;BME280;49638;47.526;10.028;2023-05-08T08:35:17;92037.19;;;12.48;98.53
63493;BME280;49638;47.526;10.028;2023-05-08T08:38:17;92052.16;;;12.59;98.33
63493;BME280;49638;47.526;10.028;2023-05-08T08:41:18;92049.50;;;12.59;99.38
63493;BME280;49638;47.526;10.028;2023-05-08T08:44:18;92045.31;;;12.63;99.34
63493;BME280;49638;47.526;10.028;2023-05-08T08:47:21;92031.03;;;12.64;98.84
63493;BME280;49638;47.526;10.028;2023-05-08T08:50:25;92060.34;;;12.79;98.86
63493;BME280;49638;47.526;10.028;2023-05-08T08:53:29;92044.56;;;12.90;98.60
63493;BME280;49638;47.526;10.028;2023-05-08T08:56:33;92036.09;;;12.93;98.62
63493;BME280;49638;47.526;10.028;2023-05-08T08:59:37;92053.41;;;13.00;98.73
63493;BME280;49638;47.526;10.028;2023-05-08T09:02:38;92043.88;;;12.99;98.44
63493;BME280;49638;47.526;10.028;2023-05-08T09:05:38;92050.28;;;13.03;98.33
63493;BME280;49638;47.526;10.028;2023-05-08T09:08:39;92057.50;;;13.08;98.28
63493;BME280;49638;47.526;10.028;2023-05-08T09:11:42;92061.19;;;13.07;98.88
63493;BME280;49638;47.526;10.028;2023-05-08T09:14:42;92053.00;;;13.09;99.58
63493;BME280;49638;47.526;10.028;2023-05-08T09:17:42;92055.66;;;13.09;99.59
63493;BME280;49638;47.526;10.028;2023-05-08T09:20:43;92051.72;;;13.16;99.94
63493;BME280;49638;47.526;10.028;2023-05-08T09:24:01;92045.13;;;13.19;100.00
63493;BME280;49638;47.526;10.028;2023-05-08T09:27:02;92053.97;;;13.24;100.00
63493;BME280;49638;47.526;10.028;2023-05-08T09:30:09;92050.81;;;13.28;99.96
63493;BME280;49638;47.526;10.028;2023-05-08T09:33:10;92048.88;;;13.23;99.93
63493;BME280;49638;47.526;10.028;2023-05-08T09:36:24;92053.97;;;13.24;100.00
63493;BME280;49638;47.526;10.028;2023-05-08T09:39:26;92048.41;;;13.26;100.00
63493;BME280;49638;47.526;10.028;2023-05-08T09:42:36;92050.91;;;13.38;100.00
63493;BME280;49638;47.526;10.028;2023-05-08T09:45:37;92057.88;;;13.44;100.00
63493;BME280;49638;47.526;10.028;2023-05-08T09:48:38;92059.78;;;13.48;100.00
63493;BME280;49638;47.526;10.028;2023-05-08T09:51:50;92051.56;;;13.50;98.96
63493;BME280;49638;47.526;10.028;2023-05-08T09:54:58;92055.50;;;13.47;98.90
63493;BME280;49638;47.526;10.028;2023-05-08T09:57:59;92053.63;;;13.43;99.24
63493;BME280;49638;47.526;10.028;2023-05-08T10:01:00;92057.13;;;13.48;99.23
63493;BME280;49638;47.526;10.028;2023-05-08T10:04:01;92057.44;;;13.52;98.76
63493;BME280;49638;47.526;10.028;2023-05-08T10:07:02;92055.84;;;13.56;98.47
63493;BME280;49638;47.526;10.028;2023-05-08T10:10:04;92057.72;;;13.56;98.71
63493;BME280;49638;47.526;10.028;2023-05-08T10:13:05;92049.78;;;13.61;98.67
63493;BME280;49638;47.526;10.028;2023-05-08T10:16:07;92043.47;;;13.67;98.78
63493;BME280;49638;47.526;10.028;2023-05-08T10:19:12;92059.28;;;13.84;99.07
63493;BME280;49638;47.526;10.028;2023-05-08T10:22:14;92069.91;;;13.89;98.65
63493;BME280;49638;47.526;10.028;2023-05-08T10:25:16;92059.91;;;13.96;98.53
63493;BME280;49638;47.526;10.028;2023-05-08T10:28:27;92055.47;;;14.12;98.68
63493;BME280;49638;47.526;10.028;2023-05-08T10:31:30;92056.31;;;14.17;98.21
63493;BME280;49638;47.526;10.028;2023-05-08T10:34:33;92054.03;;;14.36;98.28
63493;BME280;49638;47.526;10.028;2023-05-08T10:37:35;92054.91;;;14.47;97.75
63493;BME280;49638;47.526;10.028;2023-05-08T10:40:37;92047.53;;;14.54;97.21
63493;BME280;49638;47.526;10.028;2023-05-08T10:43:41;92046.78;;;14.69;96.72
63493;BME280;49638;47.526;10.028;2023-05-08T10:46:52;92057.75;;;14.78;95.31
63493;BME280;49638;47.526;10.028;2023-05-08T10:53:30;92052.94;;;14.80;95.07
63493;BME280;49638;47.526;10.028;2023-05-08T10:56:36;92043.38;;;14.79;95.94
63493;BME280;49638;47.526;10.028;2023-05-08T10:59:37;92046.84;;;14.84;95.70
63493;BME280;49638;47.526;10.028;2023-05-08T11:02:37;92050.31;;;14.85;95.39
63493;BME280;49638;47.526;10.028;2023-05-08T11:05:49;92052.94;;;14.80;94.52
63493;BME280;49638;47.526;10.028;2023-05-08T11:08:50;92046.00;;;14.74;95.04
63493;BME280;49638;47.526;10.028;2023-05-08T11:12:25;92048.94;;;14.72;94.21
63493;BME280;49638;47.526;10.028;2023-05-08T11:15:36;92048.94;;;14.72;93.79
63493;BME280;49638;47.526;10.028;2023-05-08T11:18:37;92041.19;;;14.71;94.36
63493;BME280;49638;47.526;10.028;2023-05-08T11:25:11;92043.84;;;14.65;93.90
63493;BME280;49638;47.526;10.028;2023-05-08T11:28:15;92045.16;;;14.63;93.38
63493;BME280;49638;47.526;10.028;2023-05-08T11:31:15;92040.06;;;14.56;92.99
63493;BME280;49638;47.526;10.028;2023-05-08T11:38:16;92043.28;;;14.58;92.96
63493;BME280;49638;47.526;10.028;2023-05-08T11:41:21;92040.63;;;14.58;93.52
63493;BME280;49638;47.526;10.028;2023-05-08T11:44:22;92040.13;;;14.66;94.09
63493;BME280;49638;47.526;10.028;2023-05-08T11:47:24;92038.81;;;14.69;93.96
63493;BME280;49638;47.526;10.028;2023-05-08T11:50:29;92036.19;;;14.79;94.16
63493;BME280;49638;47.526;10.028;2023-05-08T11:53:30;92037.00;;;14.90;94.09
63493;BME280;49638;47.526;10.028;2023-05-08T11:56:31;92034.91;;;14.97;93.87
63493;BME280;49638;47.526;10.028;2023-05-08T11:59:35;92039.19;;;15.03;93.68
63493;BME280;49638;47.526;10.028;2023-05-08T12:02:36;92034.94;;;15.07;92.56
63493;BME280;49638;47.526;10.028;2023-05-08T12:05:37;92036.59;;;15.19;93.47
63493;BME280;49638;47.526;10.028;2023-05-08T12:08:38;92035.22;;;15.21;93.02
63493;BME280;49638;47.526;10.028;2023-05-08T12:11:38;92026.47;;;15.26;92.68
63493;BME280;49638;47.526;10.028;2023-05-08T12:14:40;92035.00;;;15.33;92.73
63493;BME280;49638;47.526;10.028;2023-05-08T12:17:41;92037.16;;;15.36;92.78
63493;BME280;49638;47.526;10.028;2023-05-08T12:20:44;92037.69;;;15.43;92.52
63493;BME280;49638;47.526;10.028;2023-05-08T12:23:45;92032.63;;;15.47;91.73
63493;BME280;49638;47.526;10.028;2023-05-08T12:26:45;92037.16;;;15.56;91.49
63493;BME280;49638;47.526;10.028;2023-05-08T12:29:45;92030.78;;;15.52;91.68
63493;BME280;49638;47.526;10.028;2023-05-08T12:32:46;92033.97;;;15.59;91.79
63493;BME280;49638;47.526;10.028;2023-05-08T12:35:47;92036.91;;;15.63;90.92
63493;BME280;49638;47.526;10.028;2023-05-08T12:38:49;92021.44;;;15.65;89.98
63493;BME280;49638;47.526;10.028;2023-05-08T12:41:51;92019.06;;;15.64;90.44
63493;BME280;49638;47.526;10.028;2023-05-08T12:44:52;92031.63;;;15.73;90.96
63493;BME280;49638;47.526;10.028;2023-05-08T12:47:57;92026.56;;;15.77;90.89
63493;BME280;49638;47.526;10.028;2023-05-08T12:51:02;92031.63;;;15.83;89.93
63493;BME280;49638;47.526;10.028;2023-05-08T12:54:03;92021.47;;;15.85;89.52
63493;BME280;49638;47.526;10.028;2023-05-08T12:57:11;92021.75;;;15.84;88.15
63493;BME280;49638;47.526;10.028;2023-05-08T13:00:14;92014.84;;;15.73;88.96
63493;BME280;49638;47.526;10.028;2023-05-08T13:03:25;92026.53;;;15.72;87.76
63493;BME280;49638;47.526;10.028;2023-05-08T13:06:26;92023.31;;;15.54;88.69
63493;BME280;49638;47.526;10.028;2023-05-08T13:09:27;92035.56;;;15.50;88.15
63493;BME280;49638;47.526;10.028;2023-05-08T13:12:27;92025.97;;;15.39;88.43
63493;BME280;49638;47.526;10.028;2023-05-08T13:15:27;92020.63;;;15.29;88.24
63493;BME280;49638;47.526;10.028;2023-05-08T13:18:28;92035.50;;;15.20;88.23
63493;BME280;49638;47.526;10.028;2023-05-08T13:21:28;92025.63;;;15.10;88.29
63493;BME280;49638;47.526;10.028;2023-05-08T13:24:28;92025.91;;;15.13;88.97
63493;BME280;49638;47.526;10.028;2023-05-08T13:27:28;92031.22;;;15.13;89.16
63493;BME280;49638;47.526;10.028;2023-05-08T13:30:29;92031.25;;;15.19;89.06
63493;BME280;49638;47.526;10.028;2023-05-08T13:33:29;92027.53;;;15.20;88.62
63493;BME280;49638;47.526;10.028;2023-05-08T13:36:29;92026.47;;;15.26;89.15
63493;BME280;49638;47.526;10.028;2023-05-08T13:39:30;92009.16;;;15.28;88.88
63493;BME280;49638;47.526;10.028;2023-05-08T13:42:31;92019.03;;;15.38;88.95
63493;BME280;49638;47.526;10.028;2023-05-08T13:45:32;92014.22;;;15.45;88.52
63493;BME280;49638;47.526;10.028;2023-05-08T13:48:32;92018.00;;;15.49;87.78
63493;BME280;49638;47.526;10.028;2023-05-08T13:51:32;92012.13;;;15.42;87.20
63493;BME280;49638;47.526;10.028;2023-05-08T13:54:32;92005.69;;;15.38;88.21
63493;BME280;49638;47.526;10.028;2023-05-08T13:57:33;92016.88;;;15.35;87.99
63493;BME280;49638;47.526;10.028;2023-05-08T14:00:33;92007.03;;;15.30;88.08
63493;BME280;49638;47.526;10.028;2023-05-08T14:03:33;92010.50;;;15.31;88.51
63493;BME280;49638;47.526;10.028;2023-05-08T14:06:34;91998.78;;;15.22;88.92
63493;BME280;49638;47.526;10.028;2023-05-08T14:09:34;92005.69;;;15.23;88.85
63493;BME280;49638;47.526;10.028;2023-05-08T14:12:34;92005.44;;;15.19;89.17
63493;BME280;49638;47.526;10.028;2023-05-08T14:15:36;92003.78;;;15.08;89.31
63493;BME280;49638;47.526;10.028;2023-05-08T14:18:36;92004.59;;;15.03;89.84
63493;BME280;49638;47.526;10.028;2023-05-08T14:21:36;92002.44;;;14.95;90.35
63493;BME280;49638;47.526;10.028;2023-05-08T14:24:37;92000.03;;;14.88;90.69
63493;BME280;49638;47.526;10.028;2023-05-08T14:27:37;92003.97;;;14.81;90.58
63493;BME280;49638;47.526;10.028;2023-05-08T14:30:37;92010.91;;;14.82;90.97
63493;BME280;49638;47.526;10.028;2023-05-08T14:33:38;91994.13;;;14.76;90.85
63493;BME280;49638;47.526;10.028;2023-05-08T14:36:38;91998.66;;;14.81;90.73
63493;BME280;49638;47.526;10.028;2023-05-08T14:39:38;91995.19;;;14.80;90.65
63493;BME280;49638;47.526;10.028;2023-05-08T14:42:39;92001.34;;;14.86;90.05
63493;BME280;49638;47.526;10.028;2023-05-08T14:45:39;91996.56;;;14.93;89.64
63493;BME280;49638;47.526;10.028;2023-05-08T14:48:39;91995.81;;;15.03;89.19
63493;BME280;49638;47.526;10.028;2023-05-08T14:51:39;91977.41;;;15.01;89.62
63493;BME280;49638;47.526;10.028;2023-05-08T14:54:40;91983.59;;;15.12;89.57
63493;BME280;49638;47.526;10.028;2023-05-08T14:57:40;92000.09;;;15.24;89.22
63493;BME280;49638;47.526;10.028;2023-05-08T15:00:40;91999.84;;;15.26;89.18
63493;BME280;49638;47.526;10.028;2023-05-08T15:03:40;91999.81;;;15.21;88.34
63493;BME280;49638;47.526;10.028;2023-05-08T15:06:41;91988.63;;;15.08;88.08
63493;BME280;49638;47.526;10.028;2023-05-08T15:09:41;92009.94;;;15.08;88.10
63493;BME280;49638;47.526;10.028;2023-05-08T15:12:41;92008.84;;;15.04;88.06
63493;BME280;49638;47.526;10.028;2023-05-08T15:15:41;92001.91;;;14.93;88.31
63493;BME280;49638;47.526;10.028;2023-05-08T15:18:42;92003.97;;;14.81;88.64
63493;BME280;49638;47.526;10.028;2023-05-08T15:21:42;92007.16;;;14.68;88.68
63493;BME280;49638;47.526;10.028;2023-05-08T15:24:42;92009.78;;;14.57;88.92
63493;BME280;49638;47.526;10.028;2023-05-08T15:27:42;92011.84;;;14.50;89.39
63493;BME280;49638;47.526;10.028;2023-05-08T15:30:47;92014.19;;;14.47;89.82
63493;BME280;49638;47.526;10.028;2023-05-08T15:33:47;92015.53;;;14.44;89.86
63493;BME280;49638;47.526;10.028;2023-05-08T15:36:47;92019.47;;;14.36;89.87
63493;BME280;49638;47.526;10.028;2023-05-08T15:39:47;92020.22;;;14.27;89.71
63493;BME280;49638;47.526;10.028;2023-05-08T15:42:49;92008.41;;;14.07;90.27
63493;BME280;49638;47.526;10.028;2023-05-08T15:45:49;92024.81;;;13.99;91.26
63493;BME280;49638;47.526;10.028;2023-05-08T15:48:49;92025.31;;;13.91;91.49
63493;BME280;49638;47.526;10.028;2023-05-08T15:51:52;92022.59;;;13.81;92.20
63493;BME280;49638;47.526;10.028;2023-05-08T15:54:53;92020.91;;;13.69;91.53
63493;BME280;49638;47.526;10.028;2023-05-08T15:57:53;92016.03;;;13.56;92.18
63493;BME280;49638;47.526;10.028;2023-05-08T16:00:53;92007.47;;;13.49;92.58
63493;BME280;49638;47.526;10.028;2023-05-08T16:03:55;92011.72;;;13.50;92.62
63493;BME280;49638;47.526;10.028;2023-05-08T16:06:55;92013.31;;;13.51;93.37
63493;BME280;49638;47.526;10.028;2023-05-08T16:09:55;92016.47;;;13.48;93.82
63493;BME280;49638;47.526;10.028;2023-05-08T16:12:55;92010.63;;;13.46;93.77
63493;BME280;49638;47.526;10.028;2023-05-08T16:16:02;92009.53;;;13.42;94.86
63493;BME280;49638;47.526;10.028;2023-05-08T16:19:03;92009.00;;;13.40;94.61